sensor_id;sensor_type;location;lat;lon;timestamp;pressure;altitude;pressure_sealevel;temperature;humidity
55289;BME280;41154;45.394;5.734;2024-02-23T00:02:19;95727.38;;;7.22;100.00
55289;BME280;41154;45.394;5.734;2024-02-23T00:04:45;95721.47;;;7.15;100.00
55289;BME280;41154;45.394;5.734;2024-02-23T00:07:11;95723.38;;;7.19;100.00
55289;BME280;41154;45.394;5.734;2024-02-23T00:09:37;95726.53;;;7.06;100.00
55289;BME280;41154;45.394;5.734;2024-02-23T00:12:03;95718.53;;;7.06;100.00
55289;BME280;41154;45.394;5.734;2024-02-23T00:14:30;95720.34;;;7.00;100.00
55289;BME280;41154;45.394;5.734;2024-02-23T00:17:02;95717.88;;;6.89;100.00
55289;BME280;41154;45.394;5.734;2024-02-23T00:19:30;95717.56;;;6.80;100.00
55289;BME280;41154;45.394;5.734;2024-02-23T00:21:56;95728.16;;;6.70;100.00
55289;BME280;41154;45.394;5.734;2024-02-23T00:24:28;95738.63;;;6.81;100.00
55289;BME280;41154;45.394;5.734;2024-02-23T00:26:54;95740.06;;;6.57;100.00
55289;BME280;41154;45.394;5.734;2024-02-23T00:29:20;95741.34;;;6.49;100.00
55289;BME280;41154;45.394;5.734;2024-02-23T00:31:47;95749.94;;;6.56;100.00
55289;BME280;41154;45.394;5.734;2024-02-23T00:34:13;95739.03;;;6.63;100.00
55289;BME280;41154;45.394;5.734;2024-02-23T00:36:40;95742.25;;;6.65;100.00
55289;BME280;41154;45.394;5.734;2024-02-23T00:39:07;95754.22;;;6.62;100.00
55289;BME280;41154;45.394;5.734;2024-02-23T00:41:36;95756.47;;;6.43;100.00
55289;BME280;41154;45.394;5.734;2024-02-23T00:44:03;95752.81;;;6.17;100.00
55289;BME280;41154;45.394;5.734;2024-02-23T00:46:29;95739.34;;;6.02;100.00
55289;BME280;41154;45.394;5.734;2024-02-23T00:48:55;95729.41;;;6.24;100.00
55289;BME280;41154;45.394;5.734;2024-02-23T00:51:21;95723.78;;;6.16;100.00
55289;BME280;41154;45.394;5.734;2024-02-23T00:53:46;95717.88;;;5.86;100.00
55289;BME280;41154;45.394;5.734;2024-02-23T00:56:12;95713.59;;;5.36;100.00
55289;BME280;41154;45.394;5.734;2024-02-23T00:58:38;95716.50;;;5.34;100.00
55289;BME280;41154;45.394;5.734;2024-02-23T01:01:04;95720.84;;;5.40;100.00
55289;BME280;41154;45.394;5.734;2024-02-23T01:03:30;95722.22;;;5.21;100.00
55289;BME280;41154;45.394;5.734;2024-02-23T01:05:56;95728.09;;;5.23;100.00
55289;BME280;41154;45.394;5.734;2024-02-23T01:08:21;95732.66;;;5.28;100.00
55289;BME280;41154;45.394;5.734;2024-02-23T01:10:47;95720.97;;;5.29;100.00
55289;BME280;41154;45.394;5.734;2024-02-23T01:13:13;95727.03;;;5.24;100.00
55289;BME280;41154;45.394;5.734;2024-02-23T01:15:39;95738.78;;;5.28;100.00
55289;BME280;41154;45.394;5.734;2024-02-23T01:18:05;95732.47;;;5.34;100.00
55289;BME280;41154;45.394;5.734;2024-02-23T01:20:34;95750.66;;;5.20;100.00
55289;BME280;41154;45.394;5.734;2024-02-23T01:23:00;95740.28;;;5.19;100.00
55289;BME280;41154;45.394;5.734;2024-02-23T01:25:26;95718.63;;;5.32;100.00
55289;BME280;41154;45.394;5.734;2024-02-23T01:27:52;95719.16;;;5.34;100.00
55289;BME280;41154;45.394;5.734;2024-02-23T01:30:19;95697.91;;;5.34;100.00
55289;BME280;41154;45.394;5.734;2024-02-23T01:32:45;95705.94;;;5.39;100.00
55289;BME280;41154;45.394;5.734;2024-02-23T01:35:11;95687.84;;;5.36;100.00
55289;BME280;41154;45.394;5.734;2024-02-23T01:37:37;95677.25;;;5.42;100.00
55289;BME280;41154;45.394;5.734;2024-02-23T01:40:03;95667.06;;;5.33;100.00
55289;BME280;41154;45.394;5.734;2024-02-23T01:42:29;95663.53;;;5.28;100.00
55289;BME280;41154;45.394;5.734;2024-02-23T01:44:55;95662.19;;;5.25;100.00
55289;BME280;41154;45.394;5.734;2024-02-23T01:47:24;95663.06;;;5.09;100.00
55289;BME280;41154;45.394;5.734;2024-02-23T01:49:51;95659.97;;;4.95;100.00
55289;BME280;41154;45.394;5.734;2024-02-23T01:52:18;95667.56;;;4.86;100.00
55289;BME280;41154;45.394;5.734;2024-02-23T01:54:44;95670.06;;;4.93;100.00
55289;BME280;41154;45.394;5.734;2024-02-23T01:57:10;95659.66;;;4.91;100.00
55289;BME280;41154;45.394;5.734;2024-02-23T01:59:38;95663.00;;;5.03;100.00
55289;BME280;41154;45.394;5.734;2024-02-23T02:02:04;95637.41;;;4.97;100.00
55289;BME280;41154;45.394;5.734;2024-02-23T02:04:31;95633.59;;;4.88;100.00
55289;BME280;41154;45.394;5.734;2024-02-23T02:06:58;95623.13;;;4.81;100.00
55289;BME280;41154;45.394;5.734;2024-02-23T02:09:25;95626.53;;;4.77;100.00
55289;BME280;41154;45.394;5.734;2024-02-23T02:11:51;95617.22;;;4.74;100.00
55289;BME280;41154;45.394;5.734;2024-02-23T02:14:17;95606.28;;;4.71;100.00
55289;BME280;41154;45.394;5.734;2024-02-23T02:16:43;95604.44;;;4.71;100.00
55289;BME280;41154;45.394;5.734;2024-02-23T02:19:10;95608.06;;;4.65;100.00
55289;BME280;41154;45.394;5.734;2024-02-23T02:21:38;95604.88;;;4.63;100.00
55289;BME280;41154;45.394;5.734;2024-02-23T02:24:04;95591.00;;;4.83;100.00
55289;BME280;41154;45.394;5.734;2024-02-23T02:26:31;95587.25;;;4.79;100.00
55289;BME280;41154;45.394;5.734;2024-02-23T02:28:56;95575.06;;;4.61;100.00
55289;BME280;41154;45.394;5.734;2024-02-23T02:31:22;95576.38;;;4.80;100.00
55289;BME280;41154;45.394;5.734;2024-02-23T02:33:48;95579.78;;;4.76;100.00
55289;BME280;41154;45.394;5.734;2024-02-23T02:36:14;95558.88;;;4.62;100.00
55289;BME280;41154;45.394;5.734;2024-02-23T02:38:39;95559.97;;;4.61;100.00
55289;BME280;41154;45.394;5.734;2024-02-23T02:41:05;95551.06;;;4.73;100.00
55289;BME280;41154;45.394;5.734;2024-02-23T02:43:32;95546.91;;;4.38;100.00
55289;BME280;41154;45.394;5.734;2024-02-23T02:45:58;95547.91;;;4.54;100.00
55289;BME280;41154;45.394;5.734;2024-02-23T02:48:24;95543.91;;;4.51;100.00
55289;BME280;41154;45.394;5.734;2024-02-23T02:50:50;95543.38;;;4.10;100.00
55289;BME280;41154;45.394;5.734;2024-02-23T02:53:16;95544.56;;;4.19;100.00
55289;BME280;41154;45.394;5.734;2024-02-23T02:55:43;95540.91;;;4.25;100.00
55289;BME280;41154;45.394;5.734;2024-02-23T02:58:12;95545.19;;;4.26;100.00
55289;BME280;41154;45.394;5.734;2024-02-23T03:00:38;95542.59;;;3.75;100.00
55289;BME280;41154;45.394;5.734;2024-02-23T03:03:04;95539.72;;;3.77;100.00
55289;BME280;41154;45.394;5.734;2024-02-23T03:05:30;95543.44;;;3.76;100.00
55289;BME280;41154;45.394;5.734;2024-02-23T03:07:55;95542.09;;;3.95;100.00
55289;BME280;41154;45.394;5.734;2024-02-23T03:10:21;95549.09;;;4.02;100.00
55289;BME280;41154;45.394;5.734;2024-02-23T03:12:47;95532.56;;;3.94;100.00
55289;BME280;41154;45.394;5.734;2024-02-23T03:15:13;95536.72;;;4.07;100.00
55289;BME280;41154;45.394;5.734;2024-02-23T03:17:38;95526.53;;;3.82;100.00
55289;BME280;41154;45.394;5.734;2024-02-23T03:20:04;95519.56;;;3.76;100.00
55289;BME280;41154;45.394;5.734;2024-02-23T03:22:31;95518.97;;;3.91;100.00
55289;BME280;41154;45.394;5.734;2024-02-23T03:24:57;95530.53;;;3.85;100.00
55289;BME280;41154;45.394;5.734;2024-02-23T03:27:28;95535.31;;;3.66;100.00
55289;BME280;41154;45.394;5.734;2024-02-23T03:29:57;95530.00;;;3.49;100.00
55289;BME280;41154;45.394;5.734;2024-02-23T03:32:23;95527.69;;;3.18;100.00
55289;BME280;41154;45.394;5.734;2024-02-23T03:34:48;95521.56;;;3.01;100.00
55289;BME280;41154;45.394;5.734;2024-02-23T03:37:14;95527.34;;;2.98;100.00
55289;BME280;41154;45.394;5.734;2024-02-23T03:39:40;95518.66;;;3.02;100.00
55289;BME280;41154;45.394;5.734;2024-02-23T03:42:06;95505.75;;;3.06;100.00
55289;BME280;41154;45.394;5.734;2024-02-23T03:44:31;95513.69;;;3.06;100.00
55289;BME280;41154;45.394;5.734;2024-02-23T03:46:57;95506.84;;;2.93;100.00
55289;BME280;41154;45.394;5.734;2024-02-23T03:49:23;95506.34;;;2.79;100.00
55289;BME280;41154;45.394;5.734;2024-02-23T03:51:48;95489.03;;;2.88;100.00
55289;BME280;41154;45.394;5.734;2024-02-23T03:57:24;95493.56;;;2.76;100.00
55289;BME280;41154;45.394;5.734;2024-02-23T03:59:54;95500.91;;;2.57;100.00
55289;BME280;41154;45.394;5.734;2024-02-23T04:02:20;95489.84;;;2.60;100.00
55289;BME280;41154;45.394;5.734;2024-02-23T04:04:47;95483.25;;;2.63;100.00
55289;BME280;41154;45.394;5.734;2024-02-23T04:07:12;95479.13;;;2.67;100.00
55289;BME280;41154;45.394;5.734;2024-02-23T04:09:38;95484.31;;;2.62;100.00
55289;BME280;41154;45.394;5.734;2024-02-23T04:12:04;95476.47;;;2.67;100.00
55289;BME280;41154;45.394;5.734;2024-02-23T04:14:49;95480.63;;;2.34;100.00
55289;BME280;41154;45.394;5.734;2024-02-23T04:21:03;95479.78;;;2.05;100.00
55289;BME280;41154;45.394;5.734;2024-02-23T04:23:28;95463.28;;;2.26;100.00
55289;BME280;41154;45.394;5.734;2024-02-23T04:25:54;95463.94;;;2.33;100.00
55289;BME280;41154;45.394;5.734;2024-02-23T04:28:20;95458.53;;;2.28;100.00
55289;BME280;41154;45.394;5.734;2024-02-23T04:34:33;95469.97;;;2.17;100.00
55289;BME280;41154;45.394;5.734;2024-02-23T04:37:00;95467.50;;;2.27;100.00
55289;BME280;41154;45.394;5.734;2024-02-23T04:39:25;95461.53;;;2.32;100.00
55289;BME280;41154;45.394;5.734;2024-02-23T04:41:51;95462.19;;;2.39;100.00
55289;BME280;41154;45.394;5.734;2024-02-23T04:44:17;95460.41;;;2.28;100.00
55289;BME280;41154;45.394;5.734;2024-02-23T04:47:01;95468.16;;;2.46;100.00
55289;BME280;41154;45.394;5.734;2024-02-23T04:49:28;95466.13;;;2.65;100.00
55289;BME280;41154;45.394;5.734;2024-02-23T04:51:54;95460.69;;;2.43;100.00
55289;BME280;41154;45.394;5.734;2024-02-23T04:58:06;95453.50;;;2.27;100.00
55289;BME280;41154;45.394;5.734;2024-02-23T05:00:32;95456.41;;;2.13;100.00
55289;BME280;41154;45.394;5.734;2024-02-23T05:03:01;95448.44;;;2.25;100.00
55289;BME280;41154;45.394;5.734;2024-02-23T05:05:31;95455.56;;;2.25;100.00
55289;BME280;41154;45.394;5.734;2024-02-23T05:07:58;95451.63;;;2.27;100.00
55289;BME280;41154;45.394;5.734;2024-02-23T05:10:23;95459.53;;;2.10;100.00
55289;BME280;41154;45.394;5.734;2024-02-23T05:12:49;95458.28;;;2.01;100.00
55289;BME280;41154;45.394;5.734;2024-02-23T05:15:15;95465.00;;;1.80;100.00
55289;BME280;41154;45.394;5.734;2024-02-23T05:17:41;95466.50;;;2.16;100.00
55289;BME280;41154;45.394;5.734;2024-02-23T05:20:35;95468.50;;;1.97;100.00
55289;BME280;41154;45.394;5.734;2024-02-23T05:23:00;95464.28;;;2.37;100.00
55289;BME280;41154;45.394;5.734;2024-02-23T05:25:26;95470.22;;;2.44;100.00
55289;BME280;41154;45.394;5.734;2024-02-23T05:31:49;95484.50;;;2.03;100.00
55289;BME280;41154;45.394;5.734;2024-02-23T05:34:15;95484.88;;;2.35;100.00
55289;BME280;41154;45.394;5.734;2024-02-23T05:36:41;95490.66;;;2.20;100.00
55289;BME280;41154;45.394;5.734;2024-02-23T05:39:07;95506.31;;;2.22;100.00
55289;BME280;41154;45.394;5.734;2024-02-23T05:45:21;95499.09;;;2.75;100.00
55289;BME280;41154;45.394;5.734;2024-02-23T05:47:48;95494.69;;;2.63;100.00
55289;BME280;41154;45.394;5.734;2024-02-23T05:50:13;95485.53;;;2.42;100.00
55289;BME280;41154;45.394;5.734;2024-02-23T05:52:39;95476.63;;;2.20;100.00
55289;BME280;41154;45.394;5.734;2024-02-23T05:55:05;95472.84;;;2.15;100.00
55289;BME280;41154;45.394;5.734;2024-02-23T05:57:31;95470.00;;;2.05;100.00
55289;BME280;41154;45.394;5.734;2024-02-23T06:03:12;95471.66;;;1.71;100.00
55289;BME280;41154;45.394;5.734;2024-02-23T06:05:38;95468.31;;;1.75;100.00
55289;BME280;41154;45.394;5.734;2024-02-23T06:08:04;95468.78;;;1.72;100.00
55289;BME280;41154;45.394;5.734;2024-02-23T06:10:30;95473.63;;;1.75;100.00
55289;BME280;41154;45.394;5.734;2024-02-23T06:12:55;95473.50;;;1.58;100.00
55289;BME280;41154;45.394;5.734;2024-02-23T06:18:38;95481.53;;;1.87;100.00
55289;BME280;41154;45.394;5.734;2024-02-23T06:21:16;95489.53;;;2.16;100.00
55289;BME280;41154;45.394;5.734;2024-02-23T06:23:43;95487.75;;;2.33;100.00
55289;BME280;41154;45.394;5.734;2024-02-23T06:26:46;95494.66;;;2.23;100.00
55289;BME280;41154;45.394;5.734;2024-02-23T06:29:38;95494.19;;;2.26;100.00
55289;BME280;41154;45.394;5.734;2024-02-23T06:32:05;95487.91;;;2.15;100.00
55289;BME280;41154;45.394;5.734;2024-02-23T06:38:18;95495.56;;;2.00;100.00
55289;BME280;41154;45.394;5.734;2024-02-23T06:41:15;95493.50;;;1.78;100.00
55289;BME280;41154;45.394;5.734;2024-02-23T06:43:40;95484.56;;;1.67;100.00
55289;BME280;41154;45.394;5.734;2024-02-23T06:46:07;95484.06;;;1.94;100.00
55289;BME280;41154;45.394;5.734;2024-02-23T06:48:34;95492.03;;;1.70;100.00
55289;BME280;41154;45.394;5.734;2024-02-23T06:54:47;95492.47;;;1.67;100.00
55289;BME280;41154;45.394;5.734;2024-02-23T06:57:12;95499.34;;;1.68;100.00
55289;BME280;41154;45.394;5.734;2024-02-23T06:59:38;95503.97;;;1.61;100.00
55289;BME280;41154;45.394;5.734;2024-02-23T07:02:04;95503.50;;;1.64;100.00
55289;BME280;41154;45.394;5.734;2024-02-23T07:04:30;95495.22;;;1.72;100.00
55289;BME280;41154;45.394;5.734;2024-02-23T07:06:55;95488.78;;;1.68;100.00
55289;BME280;41154;45.394;5.734;2024-02-23T07:09:21;95485.53;;;1.90;100.00
55289;BME280;41154;45.394;5.734;2024-02-23T07:11:47;95493.97;;;1.51;100.00
55289;BME280;41154;45.394;5.734;2024-02-23T07:14:13;95489.03;;;1.55;100.00
55289;BME280;41154;45.394;5.734;2024-02-23T07:16:42;95490.97;;;1.95;100.00
55289;BME280;41154;45.394;5.734;2024-02-23T07:19:08;95484.19;;;1.75;100.00
55289;BME280;41154;45.394;5.734;2024-02-23T07:21:35;95500.28;;;1.86;100.00
55289;BME280;41154;45.394;5.734;2024-02-23T07:27:23;95509.25;;;1.49;100.00
55289;BME280;41154;45.394;5.734;2024-02-23T07:30:11;95512.34;;;1.70;100.00
55289;BME280;41154;45.394;5.734;2024-02-23T07:32:37;95513.25;;;1.64;100.00
55289;BME280;41154;45.394;5.734;2024-02-23T07:35:06;95507.06;;;1.34;100.00
55289;BME280;41154;45.394;5.734;2024-02-23T07:37:32;95510.72;;;1.33;100.00
55289;BME280;41154;45.394;5.734;2024-02-23T07:39:58;95516.25;;;1.55;100.00
55289;BME280;41154;45.394;5.734;2024-02-23T07:42:24;95518.34;;;1.53;100.00
55289;BME280;41154;45.394;5.734;2024-02-23T07:44:49;95519.94;;;1.54;100.00
55289;BME280;41154;45.394;5.734;2024-02-23T07:47:18;95519.81;;;1.37;100.00
55289;BME280;41154;45.394;5.734;2024-02-23T07:49:44;95516.16;;;1.50;100.00
55289;BME280;41154;45.394;5.734;2024-02-23T07:52:10;95522.78;;;1.29;100.00
55289;BME280;41154;45.394;5.734;2024-02-23T07:54:35;95517.25;;;1.19;100.00
55289;BME280;41154;45.394;5.734;2024-02-23T07:57:01;95516.22;;;1.20;100.00
55289;BME280;41154;45.394;5.734;2024-02-23T07:59:45;95513.03;;;1.30;100.00
55289;BME280;41154;45.394;5.734;2024-02-23T08:05:58;95514.75;;;1.24;100.00
55289;BME280;41154;45.394;5.734;2024-02-23T08:08:24;95510.25;;;1.24;100.00
55289;BME280;41154;45.394;5.734;2024-02-23T08:10:52;95509.91;;;1.21;100.00
55289;BME280;41154;45.394;5.734;2024-02-23T08:13:18;95520.94;;;1.41;100.00
55289;BME280;41154;45.394;5.734;2024-02-23T08:15:43;95514.97;;;1.70;100.00
55289;BME280;41154;45.394;5.734;2024-02-23T08:21:56;95501.31;;;2.37;100.00
55289;BME280;41154;45.394;5.734;2024-02-23T08:24:23;95503.78;;;2.56;100.00
55289;BME280;41154;45.394;5.734;2024-02-23T08:26:48;95499.56;;;3.17;100.00
55289;BME280;41154;45.394;5.734;2024-02-23T08:29:14;95498.19;;;3.66;100.00
55289;BME280;41154;45.394;5.734;2024-02-23T08:36:07;95515.97;;;4.26;100.00
55289;BME280;41154;45.394;5.734;2024-02-23T08:38:33;95515.44;;;4.24;100.00
55289;BME280;41154;45.394;5.734;2024-02-23T08:41:00;95512.56;;;3.70;100.00
55289;BME280;41154;45.394;5.734;2024-02-23T08:43:26;95504.38;;;4.32;100.00
55289;BME280;41154;45.394;5.734;2024-02-23T08:45:51;95501.44;;;5.06;100.00
55289;BME280;41154;45.394;5.734;2024-02-23T08:48:17;95513.63;;;5.66;100.00
55289;BME280;41154;45.394;5.734;2024-02-23T08:53:50;95504.16;;;7.43;100.00
55289;BME280;41154;45.394;5.734;2024-02-23T08:56:21;95499.50;;;8.47;100.00
55289;BME280;41154;45.394;5.734;2024-02-23T08:58:55;95505.09;;;8.35;100.00
55289;BME280;41154;45.394;5.734;2024-02-23T09:01:24;95505.09;;;8.35;100.00
55289;BME280;41154;45.394;5.734;2024-02-23T09:03:58;95515.25;;;6.68;100.00
55289;BME280;41154;45.394;5.734;2024-02-23T09:06:25;95502.00;;;6.99;100.00
55289;BME280;41154;45.394;5.734;2024-02-23T09:08:51;95506.66;;;6.56;100.00
55289;BME280;41154;45.394;5.734;2024-02-23T09:14:23;95497.44;;;6.10;100.00
55289;BME280;41154;45.394;5.734;2024-02-23T09:16:56;95491.63;;;6.19;100.00
55289;BME280;41154;45.394;5.734;2024-02-23T09:19:22;95487.34;;;7.01;100.00
55289;BME280;41154;45.394;5.734;2024-02-23T09:21:48;95485.19;;;6.88;100.00
55289;BME280;41154;45.394;5.734;2024-02-23T09:28:02;95480.97;;;9.79;100.00
55289;BME280;41154;45.394;5.734;2024-02-23T09:31:02;95480.97;;;9.79;100.00
55289;BME280;41154;45.394;5.734;2024-02-23T09:33:30;95472.69;;;9.12;100.00
55289;BME280;41154;45.394;5.734;2024-02-23T09:35:57;95468.94;;;7.72;100.00
55289;BME280;41154;45.394;5.734;2024-02-23T09:38:25;95467.88;;;7.63;100.00
55289;BME280;41154;45.394;5.734;2024-02-23T09:44:37;95459.78;;;8.04;100.00
55289;BME280;41154;45.394;5.734;2024-02-23T09:47:05;95458.78;;;6.87;100.00
55289;BME280;41154;45.394;5.734;2024-02-23T09:49:40;95451.84;;;6.86;100.00
55289;BME280;41154;45.394;5.734;2024-02-23T09:52:09;95434.81;;;6.92;100.00
55289;BME280;41154;45.394;5.734;2024-02-23T09:57:58;95428.16;;;7.56;100.00
55289;BME280;41154;45.394;5.734;2024-02-23T10:00:27;95431.38;;;7.32;100.00
55289;BME280;41154;45.394;5.734;2024-02-23T10:02:54;95439.38;;;7.32;100.00
55289;BME280;41154;45.394;5.734;2024-02-23T10:05:23;95432.09;;;7.74;100.00
55289;BME280;41154;45.394;5.734;2024-02-23T10:07:54;95433.75;;;7.08;100.00
55289;BME280;41154;45.394;5.734;2024-02-23T10:10:39;95417.09;;;7.99;100.00
55289;BME280;41154;45.394;5.734;2024-02-23T10:13:04;95424.56;;;8.02;100.00
55289;BME280;41154;45.394;5.734;2024-02-23T10:15:30;95425.97;;;7.73;100.00
55289;BME280;41154;45.394;5.734;2024-02-23T10:17:59;95421.63;;;8.03;100.00
55289;BME280;41154;45.394;5.734;2024-02-23T10:20:25;95416.88;;;7.90;100.00
55289;BME280;41154;45.394;5.734;2024-02-23T10:22:51;95414.94;;;8.01;100.00
55289;BME280;41154;45.394;5.734;2024-02-23T10:25:19;95413.06;;;8.06;100.00
55289;BME280;41154;45.394;5.734;2024-02-23T10:27:44;95410.13;;;8.03;100.00
55289;BME280;41154;45.394;5.734;2024-02-23T10:38:04;95404.88;;;7.82;100.00
55289;BME280;41154;45.394;5.734;2024-02-23T10:40:31;95398.38;;;8.09;100.00
55289;BME280;41154;45.394;5.734;2024-02-23T10:43:02;95385.34;;;8.52;100.00
55289;BME280;41154;45.394;5.734;2024-02-23T10:49:15;95389.25;;;8.15;100.00
55289;BME280;41154;45.394;5.734;2024-02-23T10:55:29;95383.31;;;8.28;100.00
55289;BME280;41154;45.394;5.734;2024-02-23T10:57:58;95378.72;;;8.39;100.00
55289;BME280;41154;45.394;5.734;2024-02-23T11:00:24;95372.28;;;8.45;100.00
55289;BME280;41154;45.394;5.734;2024-02-23T11:02:52;95372.94;;;8.72;100.00
55289;BME280;41154;45.394;5.734;2024-02-23T11:05:19;95368.91;;;8.24;100.00
55289;BME280;41154;45.394;5.734;2024-02-23T11:07:48;95355.28;;;8.76;100.00
55289;BME280;41154;45.394;5.734;2024-02-23T11:10:17;95355.34;;;9.00;100.00
55289;BME280;41154;45.394;5.734;2024-02-23T11:12:43;95367.03;;;8.75;98.34
55289;BME280;41154;45.394;5.734;2024-02-23T11:15:09;95368.16;;;9.03;100.00
55289;BME280;41154;45.394;5.734;2024-02-23T11:17:52;95366.44;;;8.43;100.00
55289;BME280;41154;45.394;5.734;2024-02-23T11:20:18;95369.28;;;8.57;100.00
55289;BME280;41154;45.394;5.734;2024-02-23T11:22:44;95363.84;;;8.73;100.00
55289;BME280;41154;45.394;5.734;2024-02-23T11:25:09;95361.28;;;8.57;100.00
55289;BME280;41154;45.394;5.734;2024-02-23T11:27:38;95364.19;;;8.95;100.00
55289;BME280;41154;45.394;5.734;2024-02-23T11:30:08;95359.00;;;8.75;100.00
55289;BME280;41154;45.394;5.734;2024-02-23T11:35:25;95365.28;;;8.94;100.00
55289;BME280;41154;45.394;5.734;2024-02-23T11:37:57;95367.97;;;8.94;100.00
55289;BME280;41154;45.394;5.734;2024-02-23T11:41:07;95362.06;;;9.27;100.00
55289;BME280;41154;45.394;5.734;2024-02-23T11:43:34;95357.31;;;9.72;98.96
55289;BME280;41154;45.394;5.734;2024-02-23T11:53:08;95338.41;;;9.87;100.00
55289;BME280;41154;45.394;5.734;2024-02-23T11:55:40;66377.88;;;-146.67;100.00
55289;BME280;41154;45.394;5.734;2024-02-23T11:58:07;66377.88;;;-146.67;100.00
55289;BME280;41154;45.394;5.734;2024-02-23T12:04:19;66377.88;;;-146.67;100.00
55289;BME280;41154;45.394;5.734;2024-02-23T12:06:45;66377.88;;;-146.67;100.00
55289;BME280;41154;45.394;5.734;2024-02-23T12:09:11;66377.88;;;-146.67;100.00
55289;BME280;41154;45.394;5.734;2024-02-23T12:11:38;66377.88;;;-146.67;100.00
55289;BME280;41154;45.394;5.734;2024-02-23T12:14:05;66377.88;;;-146.67;100.00
55289;BME280;41154;45.394;5.734;2024-02-23T12:16:35;66377.88;;;-146.67;100.00
55289;BME280;41154;45.394;5.734;2024-02-23T12:19:03;66377.88;;;-146.67;100.00
55289;BME280;41154;45.394;5.734;2024-02-23T12:25:17;66377.88;;;-146.67;100.00
55289;BME280;41154;45.394;5.734;2024-02-23T12:27:43;66377.88;;;-146.67;100.00
55289;BME280;41154;45.394;5.734;2024-02-23T12:30:27;66377.88;;;-146.67;100.00
55289;BME280;41154;45.394;5.734;2024-02-23T12:33:23;66377.88;;;-146.67;100.00
55289;BME280;41154;45.394;5.734;2024-02-23T12:35:49;66377.88;;;-146.67;100.00
55289;BME280;41154;45.394;5.734;2024-02-23T12:38:14;66377.88;;;-146.67;100.00
55289;BME280;41154;45.394;5.734;2024-02-23T12:44:28;66377.88;;;-146.67;100.00
55289;BME280;41154;45.394;5.734;2024-02-23T12:46:53;66377.88;;;-146.67;100.00
55289;BME280;41154;45.394;5.734;2024-02-23T12:49:19;66377.88;;;-146.67;100.00
55289;BME280;41154;45.394;5.734;2024-02-23T12:51:45;66377.88;;;-146.67;100.00
55289;BME280;41154;45.394;5.734;2024-02-23T12:54:11;66377.88;;;-146.67;100.00
55289;BME280;41154;45.394;5.734;2024-02-23T12:56:36;66377.88;;;-146.67;100.00
55289;BME280;41154;45.394;5.734;2024-02-23T12:59:02;66377.88;;;-146.67;100.00
55289;BME280;41154;45.394;5.734;2024-02-23T13:05:15;66377.88;;;-146.67;100.00
55289;BME280;41154;45.394;5.734;2024-02-23T13:07:41;66377.88;;;-146.67;100.00
55289;BME280;41154;45.394;5.734;2024-02-23T13:10:26;66377.88;;;-146.67;100.00
55289;BME280;41154;45.394;5.734;2024-02-23T13:12:51;66377.88;;;-146.67;100.00
55289;BME280;41154;45.394;5.734;2024-02-23T13:15:17;66377.88;;;-146.67;100.00
55289;BME280;41154;45.394;5.734;2024-02-23T13:17:43;66377.88;;;-146.67;100.00
55289;BME280;41154;45.394;5.734;2024-02-23T13:20:09;66377.88;;;-146.67;100.00
55289;BME280;41154;45.394;5.734;2024-02-23T13:22:38;66377.88;;;-146.67;100.00
55289;BME280;41154;45.394;5.734;2024-02-23T13:25:35;66377.88;;;-146.67;100.00
55289;BME280;41154;45.394;5.734;2024-02-23T13:28:02;66377.88;;;-146.67;100.00
55289;BME280;41154;45.394;5.734;2024-02-23T13:30:28;66377.88;;;-146.67;100.00
55289;BME280;41154;45.394;5.734;2024-02-23T13:32:54;66377.88;;;-146.67;100.00
55289;BME280;41154;45.394;5.734;2024-02-23T13:35:20;66377.88;;;-146.67;100.00
55289;BME280;41154;45.394;5.734;2024-02-23T13:41:12;66377.88;;;-146.67;100.00
55289;BME280;41154;45.394;5.734;2024-02-23T13:43:47;66377.88;;;-146.67;100.00
55289;BME280;41154;45.394;5.734;2024-02-23T13:49:41;66377.88;;;-146.67;100.00
55289;BME280;41154;45.394;5.734;2024-02-23T13:52:07;66377.88;;;-146.67;100.00
55289;BME280;41154;45.394;5.734;2024-02-23T13:54:42;66377.88;;;-146.67;100.00
55289;BME280;41154;45.394;5.734;2024-02-23T13:57:08;66377.88;;;-146.67;100.00
55289;BME280;41154;45.394;5.734;2024-02-23T13:59:34;66377.88;;;-146.67;100.00
55289;BME280;41154;45.394;5.734;2024-02-23T14:02:00;66377.88;;;-146.67;100.00
55289;BME280;41154;45.394;5.734;2024-02-23T14:07:35;66377.88;;;-146.67;100.00
55289;BME280;41154;45.394;5.734;2024-02-23T14:10:02;66377.88;;;-146.67;100.00
55289;BME280;41154;45.394;5.734;2024-02-23T14:12:29;66377.88;;;-146.67;100.00
55289;BME280;41154;45.394;5.734;2024-02-23T14:18:42;66377.88;;;-146.67;100.00
55289;BME280;41154;45.394;5.734;2024-02-23T14:21:10;66377.88;;;-146.67;100.00
55289;BME280;41154;45.394;5.734;2024-02-23T14:27:01;66377.88;;;-146.67;100.00
55289;BME280;41154;45.394;5.734;2024-02-23T14:29:26;66377.88;;;-146.67;100.00
55289;BME280;41154;45.394;5.734;2024-02-23T14:38:15;66377.88;;;-146.67;100.00
55289;BME280;41154;45.394;5.734;2024-02-23T14:40:42;66377.88;;;-146.67;100.00
55289;BME280;41154;45.394;5.734;2024-02-23T14:43:08;66377.88;;;-146.67;100.00
55289;BME280;41154;45.394;5.734;2024-02-23T14:45:35;66377.88;;;-146.67;100.00
55289;BME280;41154;45.394;5.734;2024-02-23T14:48:02;66377.88;;;-146.67;100.00
55289;BME280;41154;45.394;5.734;2024-02-23T14:53:50;66377.88;;;-146.67;100.00
55289;BME280;41154;45.394;5.734;2024-02-23T14:56:15;66377.88;;;-146.67;100.00
55289;BME280;41154;45.394;5.734;2024-02-23T14:58:41;66377.88;;;-146.67;100.00
55289;BME280;41154;45.394;5.734;2024-02-23T15:01:07;66377.88;;;-146.67;100.00
55289;BME280;41154;45.394;5.734;2024-02-23T15:03:33;66377.88;;;-146.67;100.00
55289;BME280;41154;45.394;5.734;2024-02-23T15:05:59;66377.88;;;-146.67;100.00
55289;BME280;41154;45.394;5.734;2024-02-23T15:08:27;66377.88;;;-146.67;100.00
55289;BME280;41154;45.394;5.734;2024-02-23T15:11:27;66377.88;;;-146.67;100.00
55289;BME280;41154;45.394;5.734;2024-02-23T15:14:30;66377.88;;;-146.67;100.00
55289;BME280;41154;45.394;5.734;2024-02-23T15:16:56;66377.88;;;-146.67;100.00